Emerald Leader — C6WP4 — position and weather

sailwx.info

Track history (hours):
 
Tides and Currents Weather Stations Pressure Air Temp Water Temp Dewpoint Dewpoint Depression Visibility Wind Speed Wind Dir Waves Ship Positions

Emerald Leader

Last reported at 2015-Jan-29 19:20 UTC. Time now 2015-Jan-29 20:31 UTC.
Position N 52°43' E 003°37'.

Length 176 m; draft 8 m.

Type: Cargo ship. MMSI: 308688000.

Date/timePositionNaut miles runAvg speedWind from/ knotsBaromVisibWave heightAir tempDewpointWater temp
2015-Jan-29 19:20N 52°43' E 003°37'1315.8
2015-Jan-29 18:31N 52°53' E 003°51'1515.3
2015-Jan-29 17:33N 53°02' E 004°10'4013.2
2015-Jan-29 14:33N 53°32' E 004°53'1111.6
2015-Jan-29 13:33N 53°36' E 005°11'1111.1
2015-Jan-29 12:34N 53°40' E 005°29'1110.5
2015-Jan-29 11:33N 53°43' E 005°46'1010.5
2015-Jan-29 10:34N 53°46' E 006°02'3911.6
2015-Jan-29 07:11N 53°56' E 007°07'811.8
2015-Jan-29 06:31N 53°57' E 007°20'1111.3
2015-Jan-29 05:33N 53°60' E 007°38'1110.4
2015-Jan-29 04:33N 53°52' E 007°51'1212.6
2015-Jan-29 03:33N 53°47' E 008°10'1413.6
2015-Jan-29 02:34N 53°38' E 008°27'5 4.9
2015-Jan-29 01:33N 53°34' E 008°33'0 0.5
2015-Jan-29 00:33N 53°35' E 008°34'0 0.0
2015-Jan-28 23:33N 53°35' E 008°34'0 0.0
2015-Jan-28 22:33N 53°35' E 008°34'0 0.0
2015-Jan-28 21:30N 53°35' E 008°34'0 0.0
2015-Jan-28 20:33N 53°35' E 008°34'0 0.0
2015-Jan-28 19:33N 53°35' E 008°34'0 0.0
2015-Jan-28 18:33N 53°35' E 008°34'0 0.0
2015-Jan-28 17:33N 53°35' E 008°34'0 0.0
2015-Jan-28 16:33N 53°35' E 008°34'0 0.0
2015-Jan-28 15:33N 53°35' E 008°34'0 0.0
2015-Jan-28 14:33N 53°35' E 008°34'0 0.0
2015-Jan-28 13:33N 53°35' E 008°34'0 0.0
2015-Jan-28 12:33N 53°35' E 008°34'0 0.0
2015-Jan-28 11:33N 53°35' E 008°34'0 0.0
2015-Jan-28 10:33N 53°35' E 008°34'0 0.0
2015-Jan-28 09:33N 53°35' E 008°34'0 0.0
2015-Jan-28 08:33N 53°35' E 008°34'0 0.0
2015-Jan-28 07:33N 53°35' E 008°34'0 0.0
2015-Jan-28 06:33N 53°35' E 008°34'0 0.0
2015-Jan-28 05:33N 53°35' E 008°34'0 0.0
2015-Jan-28 04:33N 53°35' E 008°34'0 0.0
2015-Jan-28 03:30N 53°35' E 008°34'0 0.4
2015-Jan-28 02:33N 53°34' E 008°33'3 2.8
2015-Jan-28 01:33N 53°36' E 008°30'1716.6
2015-Jan-28 00:34N 53°47' E 008°09'1412.9
2015-Jan-27 23:29N 53°53' E 007°47'5 5.2
2015-Jan-27 22:26N 53°54' E 007°38'910.3
2015-Jan-27 21:32N 53°53' E 007°22'4113.7
2015-Jan-27 18:33N 53°44' E 006°15'1413.9
2015-Jan-27 17:33N 53°40' E 005°53'1414.0
2015-Jan-27 16:33N 53°36' E 005°30'1414.0
2015-Jan-27 15:34N 53°31' E 005°08'1414.4
2015-Jan-27 14:34N 53°25' E 004°46'1913.9
2015-Jan-27 13:11N 53°09' E 004°29'2314.1
2015-Jan-27 11:33N 52°48' E 004°11'1614.8
2015-Jan-27 10:28N 52°36' E 003°55'7715.7
2015-Jan-27 05:33N 51°40' E 002°27'1515.3
2015-Jan-27 04:32N 51°28' E 002°13'1414.6
2015-Jan-27 03:34N 51°14' E 002°05'1514.7
2015-Jan-27 02:34N 51°07' E 001°45'1312.8
2015-Jan-27 01:34N 50°57' E 001°32'28914.4
2015-Jan-26 05:33N 48°56' W 005°16'8514.1
2015-Jan-25 23:33N 47°43' W 006°20'1413.8
2015-Jan-25 22:33N 47°29' W 006°27'14 2.0
2015-Jan-25 15:33N 47°21' W 006°43'50911.0
2015-Jan-23 17:16N 39°10' W 009°52'1215.9
2015-Jan-23 16:31N 38°58' W 009°52'1515.3
2015-Jan-23 15:33N 38°44' W 009°52'1313.3
2015-Jan-23 14:34N 38°31' W 009°49'1313.1
2015-Jan-23 13:33N 38°18' W 009°45'1313.0
2015-Jan-23 12:33N 38°05' W 009°41'1312.9
2015-Jan-23 11:33N 37°53' W 009°37'1312.9
2015-Jan-23 10:33N 37°40' W 009°33'22112.2
2015-Jan-22 16:28N 35°59' W 005°29'1112.4
2015-Jan-22 15:34N 36°03' W 005°16'22213.9
2015-Jan-21 23:33N 37°18' W 000°56'1216.0
2015-Jan-21 22:49N 37°26' W 000°45'116.3
2015-Jan-21 22:45N 37°27' W 000°44'716.0
2015-Jan-21 22:20N 37°31' W 000°37'1215.7
2015-Jan-21 21:33N 37°41' W 000°28'1515.4
2015-Jan-21 20:33N 37°53' W 000°16'9613.4
2015-Jan-21 13:21N 39°30' W 000°07'1012.2
2015-Jan-21 12:33N 39°38' W 000°13'0 0.0
2015-Jan-21 02:24N 39°38' W 000°13'0 0.0
2015-Jan-20 16:32N 39°38' W 000°13'6611.0
2015-Jan-20 10:32N 39°23' E 001°10'1414.7
2015-Jan-20 09:33N 39°20' E 001°29'1414.3
2015-Jan-20 08:33N 39°16' E 001°46'1414.3
2015-Jan-20 07:33N 39°11' E 002°03'1515.2
2015-Jan-20 06:33N 39°05' E 002°21'1515.2
2015-Jan-20 05:32N 38°59' E 002°40'1515.1
2015-Jan-20 04:32N 38°55' E 002°58'1414.8
2015-Jan-20 03:33N 38°51' E 003°16'1514.9
2015-Jan-20 02:33N 38°48' E 003°35'  
Track history (hours):
 
Tides and Currents Weather Stations Pressure Air Temp Water Temp Dewpoint Dewpoint Depression Visibility Wind Speed Wind Dir Waves Ship Positions

Emerald Leader

Last reported at 2015-Jan-29 19:20 UTC. Time now 2015-Jan-29 20:31 UTC.
Position N 52°43' E 003°37'.

Length 176 m; draft 8 m.

Type: Cargo ship. MMSI: 308688000.

Date/timePositionNaut miles runAvg speedWind from/ knotsBaromVisibWave heightAir tempDewpointWater temp
2015-Jan-29 19:20N 52°43' E 003°37'1315.8
2015-Jan-29 18:31N 52°53' E 003°51'1515.3
2015-Jan-29 17:33N 53°02' E 004°10'4013.2
2015-Jan-29 14:33N 53°32' E 004°53'1111.6
2015-Jan-29 13:33N 53°36' E 005°11'1111.1
2015-Jan-29 12:34N 53°40' E 005°29'1110.5
2015-Jan-29 11:33N 53°43' E 005°46'1010.5
2015-Jan-29 10:34N 53°46' E 006°02'3911.6
2015-Jan-29 07:11N 53°56' E 007°07'811.8
2015-Jan-29 06:31N 53°57' E 007°20'1111.3
2015-Jan-29 05:33N 53°60' E 007°38'1110.4
2015-Jan-29 04:33N 53°52' E 007°51'1212.6
2015-Jan-29 03:33N 53°47' E 008°10'1413.6
2015-Jan-29 02:34N 53°38' E 008°27'5 4.9
2015-Jan-29 01:33N 53°34' E 008°33'0 0.5
2015-Jan-29 00:33N 53°35' E 008°34'0 0.0
2015-Jan-28 23:33N 53°35' E 008°34'0 0.0
2015-Jan-28 22:33N 53°35' E 008°34'0 0.0
2015-Jan-28 21:30N 53°35' E 008°34'0 0.0
2015-Jan-28 20:33N 53°35' E 008°34'0 0.0
2015-Jan-28 19:33N 53°35' E 008°34'0 0.0
2015-Jan-28 18:33N 53°35' E 008°34'0 0.0
2015-Jan-28 17:33N 53°35' E 008°34'0 0.0
2015-Jan-28 16:33N 53°35' E 008°34'0 0.0
2015-Jan-28 15:33N 53°35' E 008°34'0 0.0
2015-Jan-28 14:33N 53°35' E 008°34'0 0.0
2015-Jan-28 13:33N 53°35' E 008°34'0 0.0
2015-Jan-28 12:33N 53°35' E 008°34'0 0.0
2015-Jan-28 11:33N 53°35' E 008°34'0 0.0
2015-Jan-28 10:33N 53°35' E 008°34'0 0.0
2015-Jan-28 09:33N 53°35' E 008°34'0 0.0
2015-Jan-28 08:33N 53°35' E 008°34'0 0.0
2015-Jan-28 07:33N 53°35' E 008°34'0 0.0
2015-Jan-28 06:33N 53°35' E 008°34'0 0.0
2015-Jan-28 05:33N 53°35' E 008°34'0 0.0
2015-Jan-28 04:33N 53°35' E 008°34'0 0.0
2015-Jan-28 03:30N 53°35' E 008°34'0 0.4
2015-Jan-28 02:33N 53°34' E 008°33'3 2.8
2015-Jan-28 01:33N 53°36' E 008°30'1716.6
2015-Jan-28 00:34N 53°47' E 008°09'1412.9
2015-Jan-27 23:29N 53°53' E 007°47'5 5.2
2015-Jan-27 22:26N 53°54' E 007°38'910.3
2015-Jan-27 21:32N 53°53' E 007°22'4113.7
2015-Jan-27 18:33N 53°44' E 006°15'1413.9
2015-Jan-27 17:33N 53°40' E 005°53'1414.0
2015-Jan-27 16:33N 53°36' E 005°30'1414.0
2015-Jan-27 15:34N 53°31' E 005°08'1414.4
2015-Jan-27 14:34N 53°25' E 004°46'1913.9
2015-Jan-27 13:11N 53°09' E 004°29'2314.1
2015-Jan-27 11:33N 52°48' E 004°11'1614.8
2015-Jan-27 10:28N 52°36' E 003°55'7715.7
2015-Jan-27 05:33N 51°40' E 002°27'1515.3
2015-Jan-27 04:32N 51°28' E 002°13'1414.6
2015-Jan-27 03:34N 51°14' E 002°05'1514.7
2015-Jan-27 02:34N 51°07' E 001°45'1312.8
2015-Jan-27 01:34N 50°57' E 001°32'28914.4
2015-Jan-26 05:33N 48°56' W 005°16'8514.1
2015-Jan-25 23:33N 47°43' W 006°20'1413.8
2015-Jan-25 22:33N 47°29' W 006°27'14 2.0
2015-Jan-25 15:33N 47°21' W 006°43'50911.0
2015-Jan-23 17:16N 39°10' W 009°52'1215.9
2015-Jan-23 16:31N 38°58' W 009°52'1515.3
2015-Jan-23 15:33N 38°44' W 009°52'1313.3
2015-Jan-23 14:34N 38°31' W 009°49'1313.1
2015-Jan-23 13:33N 38°18' W 009°45'1313.0
2015-Jan-23 12:33N 38°05' W 009°41'1312.9
2015-Jan-23 11:33N 37°53' W 009°37'1312.9
2015-Jan-23 10:33N 37°40' W 009°33'22112.2
2015-Jan-22 16:28N 35°59' W 005°29'1112.4
2015-Jan-22 15:34N 36°03' W 005°16'22213.9
2015-Jan-21 23:33N 37°18' W 000°56'1216.0
2015-Jan-21 22:49N 37°26' W 000°45'116.3
2015-Jan-21 22:45N 37°27' W 000°44'716.0
2015-Jan-21 22:20N 37°31' W 000°37'1215.7
2015-Jan-21 21:33N 37°41' W 000°28'1515.4
2015-Jan-21 20:33N 37°53' W 000°16'9613.4
2015-Jan-21 13:21N 39°30' W 000°07'1012.2
2015-Jan-21 12:33N 39°38' W 000°13'0 0.0
2015-Jan-21 02:24N 39°38' W 000°13'0 0.0
2015-Jan-20 16:32N 39°38' W 000°13'6611.0
2015-Jan-20 10:32N 39°23' E 001°10'1414.7
2015-Jan-20 09:33N 39°20' E 001°29'1414.3
2015-Jan-20 08:33N 39°16' E 001°46'1414.3
2015-Jan-20 07:33N 39°11' E 002°03'1515.2
2015-Jan-20 06:33N 39°05' E 002°21'1515.2
2015-Jan-20 05:32N 38°59' E 002°40'1515.1
2015-Jan-20 04:32N 38°55' E 002°58'1414.8
2015-Jan-20 03:33N 38°51' E 003°16'1514.9
2015-Jan-20 02:33N 38°48' E 003°35'  

Dump ship's entire track history